createdAt,value
2022-12-16T00:00:07.362Z,33.27
2022-12-16T00:02:34.217Z,36.90
2022-12-16T00:05:01.086Z,35.40
2022-12-16T00:07:28.645Z,31.63
2022-12-16T00:09:55.443Z,35.43
2022-12-16T00:12:22.281Z,31.63
2022-12-16T00:14:49.145Z,34.93
2022-12-16T00:17:15.914Z,33.47
2022-12-16T00:19:42.693Z,33.33
2022-12-16T00:22:09.479Z,34.47
2022-12-16T00:24:36.400Z,30.60
2022-12-16T00:27:03.484Z,31.03
2022-12-16T00:29:30.273Z,31.60
2022-12-16T00:31:57.120Z,29.50
2022-12-16T00:34:23.994Z,32.37
2022-12-16T00:36:50.834Z,30.33
2022-12-16T00:39:17.817Z,29.83
2022-12-16T00:41:44.629Z,30.40
2022-12-16T00:44:11.494Z,34.00
2022-12-16T00:46:38.328Z,31.20
2022-12-16T00:49:05.268Z,31.20
2022-12-16T00:51:32.122Z,32.27
2022-12-16T00:53:58.988Z,29.13
2022-12-16T00:56:25.801Z,30.57
2022-12-16T00:58:52.669Z,33.67
2022-12-16T01:01:21.810Z,31.23
2022-12-16T01:03:48.817Z,35.57
2022-12-16T01:06:17.514Z,32.03
2022-12-16T01:08:48.429Z,30.77
2022-12-16T01:11:19.859Z,30.10
2022-12-16T01:13:50.177Z,31.93
2022-12-16T01:16:19.261Z,31.00
2022-12-16T01:18:46.229Z,30.67
2022-12-16T01:21:15.337Z,31.67
2022-12-16T01:23:42.676Z,33.80
2022-12-16T01:26:14.990Z,31.30
2022-12-16T01:28:41.865Z,31.83
2022-12-16T01:31:08.712Z,33.30
2022-12-16T01:33:35.979Z,32.00
2022-12-16T01:36:06.086Z,32.83
2022-12-16T01:38:33.052Z,32.87
2022-12-16T01:41:00.074Z,33.47
2022-12-16T01:43:31.085Z,38.03
2022-12-16T01:46:24.775Z,34.80
2022-12-16T01:48:54.161Z,34.40
2022-12-16T01:51:30.030Z,35.67
2022-12-16T01:54:01.895Z,36.13
2022-12-16T01:56:33.358Z,33.90
2022-12-16T01:59:01.503Z,36.93
2022-12-16T02:01:28.651Z,36.17
2022-12-16T02:04:01.841Z,33.73
2022-12-16T02:06:33.386Z,35.13
2022-12-16T02:09:06.148Z,37.37
2022-12-16T02:11:59.480Z,37.60
2022-12-16T02:14:45.661Z,38.43
2022-12-16T02:17:33.920Z,34.77
2022-12-16T02:20:09.442Z,38.77
2022-12-16T02:23:03.464Z,36.90
2022-12-16T02:25:39.172Z,38.33
2022-12-16T02:28:29.064Z,36.40
2022-12-16T02:31:07.634Z,34.83
2022-12-16T02:34:02.237Z,38.90
2022-12-16T02:36:45.841Z,38.73
2022-12-16T02:39:15.486Z,38.73
2022-12-16T02:41:50.548Z,39.33
2022-12-16T02:44:18.530Z,37.30
2022-12-16T02:46:54.210Z,43.63
2022-12-16T02:49:22.305Z,40.53
2022-12-16T02:51:49.983Z,46.80
2022-12-16T02:54:17.902Z,42.57
2022-12-16T02:57:13.720Z,43.53
2022-12-16T02:59:46.279Z,47.20
2022-12-16T03:02:26.641Z,43.47
2022-12-16T03:05:04.194Z,43.20
2022-12-16T03:07:36.253Z,42.73
2022-12-16T03:10:07.709Z,44.67
2022-12-16T03:12:38.269Z,41.77
2022-12-16T03:15:05.723Z,40.23
2022-12-16T03:17:32.790Z,41.93
2022-12-16T03:20:14.279Z,41.90
2022-12-16T03:22:44.595Z,38.73
2022-12-16T03:25:11.753Z,40.80
2022-12-16T03:27:48.997Z,42.77
2022-12-16T03:30:47.727Z,43.03
2022-12-16T03:33:24.679Z,41.63
2022-12-16T03:35:57.887Z,41.13
2022-12-16T03:38:27.405Z,38.47
2022-12-16T03:40:56.614Z,40.67
2022-12-16T03:43:24.276Z,39.47
2022-12-16T03:45:54.417Z,37.03
2022-12-16T03:48:25.098Z,40.73
2022-12-16T03:50:51.930Z,36.27
2022-12-16T03:53:18.783Z,38.63
2022-12-16T03:55:45.641Z,38.03
2022-12-16T03:58:12.587Z,39.60
2022-12-16T04:00:39.393Z,37.83
2022-12-16T04:03:06.448Z,38.03
2022-12-16T04:05:33.375Z,37.53
2022-12-16T04:08:02.204Z,36.37
2022-12-16T04:10:47.759Z,37.87
2022-12-16T04:13:33.679Z,36.03
2022-12-16T04:16:19.586Z,42.93
2022-12-16T04:19:06.411Z,37.00
2022-12-16T04:21:51.819Z,37.03
2022-12-16T04:24:20.714Z,39.43
2022-12-16T04:27:11.884Z,41.67
2022-12-16T04:30:00.294Z,42.17
2022-12-16T04:32:27.285Z,44.63
2022-12-16T04:34:54.109Z,41.83
2022-12-16T04:37:39.357Z,40.10
2022-12-16T04:40:25.278Z,36.87
2022-12-16T04:43:10.703Z,40.17
2022-12-16T04:45:57.445Z,44.17
2022-12-16T04:48:43.064Z,40.37
2022-12-16T04:51:28.435Z,40.23
2022-12-16T04:54:14.016Z,40.97
2022-12-16T04:56:59.539Z,44.77
2022-12-16T04:59:44.755Z,41.57
2022-12-16T05:02:30.297Z,43.97
2022-12-16T05:05:15.679Z,42.97
2022-12-16T05:08:00.903Z,43.80
2022-12-16T05:10:46.358Z,44.73
2022-12-16T05:13:31.749Z,44.10
2022-12-16T05:16:17.470Z,44.50
2022-12-16T05:19:02.632Z,41.60
2022-12-16T05:21:47.962Z,42.33
2022-12-16T05:24:33.598Z,43.43
2022-12-16T05:27:18.762Z,43.80
2022-12-16T05:30:04.084Z,44.03
2022-12-16T05:32:49.329Z,43.53
2022-12-16T05:35:34.705Z,40.80
2022-12-16T05:38:20.245Z,40.53
2022-12-16T05:41:05.556Z,39.67
2022-12-16T05:43:50.783Z,42.67
2022-12-16T05:46:36.097Z,39.37
2022-12-16T05:49:21.520Z,41.23
2022-12-16T05:52:07.068Z,41.10
2022-12-16T05:55:09.103Z,43.00
2022-12-16T05:57:54.097Z,41.90
2022-12-16T06:00:39.321Z,40.10
2022-12-16T06:03:24.733Z,40.37
2022-12-16T06:06:10.080Z,42.60
2022-12-16T06:08:55.618Z,39.43
2022-12-16T06:11:41.064Z,38.30
2022-12-16T06:14:26.682Z,35.90
2022-12-16T06:17:12.170Z,38.70
2022-12-16T06:19:57.580Z,36.33
2022-12-16T06:22:43.019Z,33.13
2022-12-16T06:25:28.289Z,38.17
2022-12-16T06:28:13.564Z,36.00
2022-12-16T06:30:58.978Z,34.27
2022-12-16T06:33:44.315Z,33.07
2022-12-16T06:36:30.835Z,33.73
2022-12-16T06:39:16.278Z,34.80
2022-12-16T06:42:01.672Z,35.23
2022-12-16T06:44:47.319Z,37.80
2022-12-16T06:47:32.542Z,35.30
2022-12-16T06:50:17.893Z,36.43
2022-12-16T06:53:03.699Z,35.07
2022-12-16T06:55:49.494Z,35.17
2022-12-16T06:58:34.786Z,37.70
2022-12-16T07:01:21.905Z,35.57
2022-12-16T07:04:07.261Z,36.50
2022-12-16T07:06:52.587Z,35.17
2022-12-16T07:09:37.787Z,39.67
2022-12-16T07:12:23.275Z,38.60
2022-12-16T07:15:08.560Z,40.13
2022-12-16T07:17:54.068Z,38.40
2022-12-16T07:20:39.334Z,36.03
2022-12-16T07:23:26.397Z,38.13
2022-12-16T07:26:11.527Z,38.43
2022-12-16T07:28:56.775Z,36.57
2022-12-16T07:31:42.327Z,42.83
2022-12-16T07:34:27.642Z,37.60
2022-12-16T07:37:12.949Z,35.40
2022-12-16T07:39:58.299Z,37.07
2022-12-16T07:42:43.579Z,38.83
2022-12-16T07:45:29.448Z,41.00
2022-12-16T07:48:14.737Z,37.10
2022-12-16T07:51:00.514Z,39.70
2022-12-16T07:53:46.427Z,43.40
2022-12-16T07:56:32.284Z,35.03
2022-12-16T07:59:17.581Z,39.50
2022-12-16T08:02:03.205Z,42.77
2022-12-16T08:04:48.593Z,41.57
2022-12-16T08:07:33.750Z,43.83
2022-12-16T08:10:19.324Z,42.20
2022-12-16T08:13:05.523Z,40.70
2022-12-16T08:15:50.727Z,47.37
2022-12-16T08:18:36.112Z,33.90
2022-12-16T08:21:21.497Z,38.10
2022-12-16T08:24:06.611Z,35.50
2022-12-16T08:26:52.305Z,36.53
2022-12-16T08:29:45.762Z,41.67
2022-12-16T08:32:35.566Z,36.93
2022-12-16T08:35:20.826Z,34.30
2022-12-16T08:38:12.214Z,33.13
2022-12-16T08:41:03.766Z,37.83
2022-12-16T08:43:50.654Z,31.17
2022-12-16T08:46:36.631Z,30.20
2022-12-16T08:49:23.488Z,30.43
2022-12-16T08:52:08.777Z,25.97
2022-12-16T08:54:54.006Z,32.20
2022-12-16T08:57:39.375Z,33.47
2022-12-16T09:00:25.812Z,35.17
2022-12-16T09:03:16.055Z,38.73
2022-12-16T09:06:02.639Z,34.07
2022-12-16T09:08:49.057Z,37.77
2022-12-16T09:11:34.348Z,36.13
2022-12-16T09:14:19.708Z,39.63
2022-12-16T09:17:05.118Z,34.17
2022-12-16T09:19:50.633Z,34.73
2022-12-16T09:22:36.257Z,36.57
2022-12-16T09:25:21.589Z,35.07
2022-12-16T09:28:09.924Z,34.00
2022-12-16T09:30:55.510Z,33.03
2022-12-16T09:33:41.012Z,30.60
2022-12-16T09:36:26.930Z,31.27
2022-12-16T09:39:12.406Z,29.00
2022-12-16T09:42:03.032Z,27.17
2022-12-16T09:45:17.875Z,28.40
2022-12-16T09:48:14.611Z,28.87
2022-12-16T09:51:01.682Z,29.47
2022-12-16T09:53:53.285Z,27.57
2022-12-16T09:56:46.783Z,27.17
2022-12-16T09:59:37.998Z,29.30
2022-12-16T10:02:34.137Z,27.87
2022-12-16T10:05:19.851Z,28.23
2022-12-16T10:08:17.150Z,24.63
2022-12-16T10:11:36.028Z,24.23
2022-12-16T10:14:33.414Z,25.00
2022-12-16T10:17:36.290Z,26.07
2022-12-16T10:20:46.145Z,25.47
2022-12-16T10:23:51.000Z,26.43
2022-12-16T10:26:47.140Z,24.90
2022-12-16T10:29:38.318Z,24.03
2022-12-16T10:32:43.906Z,25.27
2022-12-16T10:35:46.702Z,24.63
2022-12-16T10:39:09.342Z,26.57
2022-12-16T10:42:04.278Z,22.73
2022-12-16T10:45:07.989Z,25.00
2022-12-16T10:47:54.286Z,25.37
2022-12-16T10:50:40.837Z,25.23
2022-12-16T10:53:39.882Z,25.37
2022-12-16T10:56:53.480Z,24.83
2022-12-16T10:59:38.793Z,24.53
2022-12-16T11:02:39.056Z,22.53
2022-12-16T11:05:53.654Z,25.17
2022-12-16T11:08:49.505Z,21.77
2022-12-16T11:11:48.614Z,22.40
2022-12-16T11:15:05.775Z,20.60
2022-12-16T11:17:48.895Z,22.83
2022-12-16T11:20:42.388Z,20.53
2022-12-16T11:23:42.463Z,19.20
2022-12-16T11:26:38.479Z,21.27
2022-12-16T11:29:32.011Z,20.67
2022-12-16T11:32:34.991Z,25.87
2022-12-16T11:35:23.389Z,28.17
2022-12-16T11:38:12.756Z,25.57
2022-12-16T11:40:58.712Z,29.27
2022-12-16T11:43:46.033Z,24.53
2022-12-16T11:46:38.528Z,23.70
2022-12-16T11:49:32.403Z,24.50
2022-12-16T11:52:39.431Z,19.27
2022-12-16T11:56:10.770Z,18.07
2022-12-16T11:59:16.530Z,22.20
2022-12-16T12:02:08.265Z,21.73
2022-12-16T12:04:54.527Z,19.20
2022-12-16T12:08:08.436Z,17.90
2022-12-16T12:11:01.971Z,20.27
2022-12-16T12:13:50.182Z,17.97
2022-12-16T12:17:07.282Z,18.30
2022-12-16T12:20:35.067Z,17.07
2022-12-16T12:23:28.887Z,19.63
2022-12-16T12:26:29.528Z,18.10
2022-12-16T12:29:21.914Z,18.03
2022-12-16T12:32:27.376Z,16.07
2022-12-16T12:35:33.017Z,15.30
2022-12-16T12:38:30.645Z,17.03
2022-12-16T12:41:33.041Z,17.57
2022-12-16T12:44:24.798Z,15.80
2022-12-16T12:47:18.328Z,16.77
2022-12-16T12:50:18.322Z,18.20
2022-12-16T12:53:25.379Z,17.20
2022-12-16T12:56:10.882Z,14.70
2022-12-16T12:58:57.193Z,14.23
2022-12-16T13:01:48.408Z,15.93
2022-12-16T13:04:40.111Z,14.90
2022-12-16T13:07:26.980Z,18.77
2022-12-16T13:10:30.562Z,18.47
2022-12-16T13:13:34.193Z,21.00
2022-12-16T13:16:21.164Z,15.00
2022-12-16T13:19:11.628Z,14.33
2022-12-16T13:21:57.216Z,16.50
2022-12-16T13:24:45.802Z,14.73
2022-12-16T13:27:35.906Z,17.13
2022-12-16T13:30:30.246Z,17.07
2022-12-16T13:33:43.571Z,14.97
2022-12-16T13:36:30.577Z,14.33
2022-12-16T13:39:24.172Z,14.50
2022-12-16T13:42:16.742Z,13.07
2022-12-16T13:45:02.048Z,15.07
2022-12-16T13:47:59.575Z,15.63
2022-12-16T13:50:58.821Z,16.20
2022-12-16T13:53:58.428Z,14.03
2022-12-16T13:57:05.505Z,15.87
2022-12-16T13:59:51.938Z,16.20
2022-12-16T14:02:46.163Z,14.40
2022-12-16T14:05:43.851Z,16.97
2022-12-16T14:08:36.552Z,12.63
2022-12-16T14:11:38.663Z,13.43
2022-12-16T14:14:33.261Z,14.70
2022-12-16T14:17:25.229Z,13.43
2022-12-16T14:20:19.272Z,14.53
2022-12-16T14:23:54.590Z,12.93
2022-12-16T14:26:31.584Z,12.93
2022-12-16T14:29:17.285Z,15.67
2022-12-16T14:32:03.484Z,12.73
2022-12-16T14:34:54.621Z,14.30
2022-12-16T14:37:47.805Z,13.30
2022-12-16T14:40:52.589Z,14.27
2022-12-16T14:43:46.910Z,15.93
2022-12-16T14:46:49.782Z,13.87
2022-12-16T14:49:46.698Z,12.83
2022-12-16T14:52:50.315Z,13.47
2022-12-16T14:55:39.047Z,13.90
2022-12-16T14:58:29.598Z,14.27
2022-12-16T15:01:19.590Z,12.50
2022-12-16T15:04:07.750Z,14.97
2022-12-16T15:06:59.911Z,14.40
2022-12-16T15:09:50.835Z,14.63
2022-12-16T15:12:41.254Z,14.03
2022-12-16T15:15:33.657Z,14.70
2022-12-16T15:18:20.669Z,15.27
2022-12-16T15:21:12.296Z,19.53
2022-12-16T15:24:03.350Z,24.47
2022-12-16T15:26:51.462Z,30.77
2022-12-16T15:29:59.706Z,16.73
2022-12-16T15:32:52.015Z,17.27
2022-12-16T15:35:53.127Z,21.40
2022-12-16T15:38:51.347Z,17.10
2022-12-16T15:41:48.410Z,16.27
2022-12-16T15:44:38.911Z,15.67
2022-12-16T15:47:37.919Z,14.70
2022-12-16T15:50:24.973Z,13.40
2022-12-16T15:53:11.467Z,12.57
2022-12-16T15:56:04.573Z,12.80
2022-12-16T15:58:53.617Z,14.57
2022-12-16T16:01:45.842Z,15.13
2022-12-16T16:04:49.352Z,14.53
2022-12-16T16:07:37.888Z,14.07
2022-12-16T16:10:41.663Z,16.83
2022-12-16T16:13:28.615Z,13.87
2022-12-16T16:16:14.825Z,15.20
2022-12-16T16:19:01.044Z,13.07
2022-12-16T16:21:47.701Z,14.43
2022-12-16T16:24:33.457Z,14.50
2022-12-16T16:27:21.401Z,14.87
2022-12-16T16:30:06.714Z,15.73
2022-12-16T16:32:52.017Z,15.33
2022-12-16T16:35:37.321Z,16.10
2022-12-16T16:38:22.839Z,16.93
2022-12-16T16:41:08.149Z,20.37
2022-12-16T16:43:53.600Z,18.37
2022-12-16T16:46:39.298Z,19.77
2022-12-16T16:49:29.554Z,21.30
2022-12-16T16:52:14.961Z,18.37
2022-12-16T16:55:00.284Z,19.97
2022-12-16T16:57:51.210Z,21.07
2022-12-16T17:00:47.348Z,18.63
2022-12-16T17:03:33.889Z,19.80
2022-12-16T17:06:20.027Z,17.87
2022-12-16T17:09:05.353Z,21.53
2022-12-16T17:11:52.395Z,21.97
2022-12-16T17:14:39.934Z,21.60
2022-12-16T17:17:25.898Z,21.77
2022-12-16T17:20:11.591Z,17.30
2022-12-16T17:22:57.023Z,17.20
2022-12-16T17:25:42.467Z,18.67
2022-12-16T17:28:29.344Z,20.03
2022-12-16T17:31:14.900Z,19.80
2022-12-16T17:34:00.212Z,20.10
2022-12-16T17:36:45.501Z,21.67
2022-12-16T17:39:30.857Z,21.73
2022-12-16T17:42:16.175Z,22.70
2022-12-16T17:45:01.448Z,23.90
2022-12-16T17:47:46.637Z,39.60
2022-12-16T17:50:31.947Z,40.60
2022-12-16T17:53:18.278Z,35.83
2022-12-16T17:56:03.561Z,30.00
2022-12-16T17:58:56.925Z,25.03
2022-12-16T18:01:43.203Z,36.67
2022-12-16T18:04:29.137Z,33.77
2022-12-16T18:07:14.427Z,22.97
2022-12-16T18:09:59.841Z,22.77
2022-12-16T18:12:45.851Z,21.03
2022-12-16T18:15:31.185Z,16.40
2022-12-16T18:18:16.424Z,21.00
2022-12-16T18:21:01.700Z,19.97
2022-12-16T18:23:50.681Z,18.73
2022-12-16T18:26:36.125Z,17.70
2022-12-16T18:29:21.596Z,19.17
2022-12-16T18:32:07.696Z,19.47
2022-12-16T18:34:53.646Z,17.07
2022-12-16T18:37:39.101Z,18.17
2022-12-16T18:40:24.985Z,19.73
2022-12-16T18:43:10.282Z,22.00
2022-12-16T18:45:55.820Z,19.80
2022-12-16T18:48:41.381Z,25.97
2022-12-16T18:51:26.862Z,18.77
2022-12-16T18:54:12.246Z,18.87
2022-12-16T18:56:57.849Z,21.10
2022-12-16T18:59:43.349Z,22.63
2022-12-16T19:02:29.132Z,21.63
2022-12-16T19:05:14.611Z,19.23
2022-12-16T19:08:00.032Z,17.93
2022-12-16T19:10:45.301Z,19.43
2022-12-16T19:13:34.340Z,21.47
2022-12-16T19:16:19.880Z,18.77
2022-12-16T19:19:05.901Z,19.53
2022-12-16T19:21:51.783Z,20.80
2022-12-16T19:24:56.963Z,18.77
2022-12-16T19:27:42.712Z,19.57
2022-12-16T19:30:28.983Z,18.03
2022-12-16T19:33:16.529Z,19.93
2022-12-16T19:36:01.974Z,19.97
2022-12-16T19:38:47.521Z,18.87
2022-12-16T19:41:35.182Z,18.03
2022-12-16T19:44:21.895Z,21.77
2022-12-16T19:47:08.031Z,18.40
2022-12-16T19:49:54.887Z,18.13
2022-12-16T19:52:41.545Z,18.90
2022-12-16T19:55:26.991Z,19.43
2022-12-16T19:58:12.973Z,19.47
2022-12-16T20:00:58.242Z,19.63
2022-12-16T20:03:44.439Z,20.40
2022-12-16T20:06:30.676Z,19.03
2022-12-16T20:09:19.542Z,19.43
2022-12-16T20:12:04.945Z,20.37
2022-12-16T20:14:50.214Z,20.13
2022-12-16T20:17:35.435Z,20.00
2022-12-16T20:20:20.947Z,19.47
2022-12-16T20:23:06.430Z,18.83
2022-12-16T20:25:51.917Z,20.97
2022-12-16T20:28:37.487Z,23.37
2022-12-16T20:31:24.808Z,20.10
2022-12-16T20:34:16.709Z,18.70
2022-12-16T20:37:02.167Z,20.20
2022-12-16T20:39:56.278Z,22.73
2022-12-16T20:42:46.349Z,21.20
2022-12-16T20:45:33.756Z,19.83
2022-12-16T20:48:19.439Z,21.43
2022-12-16T20:51:19.723Z,20.07
2022-12-16T20:54:09.054Z,21.70
2022-12-16T20:56:55.031Z,23.20
2022-12-16T20:59:41.391Z,25.13
2022-12-16T21:02:33.487Z,22.30
2022-12-16T21:05:19.861Z,24.13
2022-12-16T21:08:19.203Z,21.27
2022-12-16T21:11:04.466Z,22.87
2022-12-16T21:13:50.331Z,23.27
2022-12-16T21:16:36.014Z,20.60
2022-12-16T21:19:34.876Z,21.40
2022-12-16T21:22:20.622Z,20.87
2022-12-16T21:25:06.136Z,22.33
2022-12-16T21:27:51.635Z,20.53
2022-12-16T21:30:38.350Z,21.43
2022-12-16T21:33:23.547Z,22.90
2022-12-16T21:36:17.619Z,19.80
2022-12-16T21:39:02.992Z,20.63
2022-12-16T21:41:48.298Z,22.57
2022-12-16T21:44:33.627Z,21.53
2022-12-16T21:47:19.058Z,23.57
2022-12-16T21:50:04.452Z,21.27
2022-12-16T21:52:49.952Z,21.83
2022-12-16T21:55:35.168Z,23.30
2022-12-16T21:58:20.373Z,24.47
2022-12-16T22:01:13.444Z,25.83
2022-12-16T22:03:58.730Z,25.03
2022-12-16T22:06:48.551Z,24.03
2022-12-16T22:09:49.705Z,29.27
2022-12-16T22:12:35.576Z,25.00
2022-12-16T22:15:20.899Z,26.87
2022-12-16T22:18:06.405Z,27.37
2022-12-16T22:20:51.851Z,26.57
2022-12-16T22:23:37.322Z,26.43
2022-12-16T22:26:22.851Z,27.17
2022-12-16T22:29:10.622Z,28.20
2022-12-16T22:31:56.200Z,29.57
2022-12-16T22:34:41.730Z,30.13
2022-12-16T22:37:27.128Z,26.87
2022-12-16T22:40:18.077Z,27.47
2022-12-16T22:43:06.270Z,27.00
2022-12-16T22:45:51.609Z,25.60
2022-12-16T22:48:37.216Z,25.63
2022-12-16T22:51:22.558Z,24.73
2022-12-16T22:54:07.904Z,25.83
2022-12-16T22:56:53.356Z,26.63
2022-12-16T22:59:41.807Z,28.13
2022-12-16T23:02:27.101Z,31.07
2022-12-16T23:05:12.942Z,36.27
2022-12-16T23:08:15.009Z,29.47
2022-12-16T23:11:01.426Z,34.57
2022-12-16T23:13:47.149Z,35.60
2022-12-16T23:16:32.549Z,28.67
2022-12-16T23:19:18.034Z,29.27
2022-12-16T23:22:03.277Z,28.67
2022-12-16T23:24:48.593Z,27.77
2022-12-16T23:27:33.904Z,28.67
2022-12-16T23:30:19.145Z,26.10
2022-12-16T23:33:04.518Z,28.70
2022-12-16T23:35:49.626Z,27.17
2022-12-16T23:38:35.052Z,25.50
2022-12-16T23:41:20.311Z,25.87
2022-12-16T23:44:05.649Z,28.90
2022-12-16T23:46:50.991Z,33.40
2022-12-16T23:49:38.812Z,36.67
2022-12-16T23:52:23.997Z,33.30
2022-12-16T23:55:09.241Z,35.53
2022-12-16T23:57:56.159Z,35.63
